Share

Winfred, SD (57076)

Rural Canova, SD (KSDCANOV2) Elev 1503 ft | 43.81 °N, 97.48 °W | Change Station

Current weather conditions updated 0 second ago

Overcast
Overcast
31.0 °F
Feels Like 20 °F
N
14.6
Wind Variable Wind from North
Gusts 19.6 mph
Sunrise 6:44 AM
Sunset 8:14 PM
Moon Waning Gibbous

Tomorrow is forecast to be Warmer than today.

Pressure 29.98 in
Visibility 10.0 miles
Clouds Overcast 1300 ft
Windchill 20 °F
Dew Point 27 °F
Humidity 86%
Rainfall 0.04 in
Snow Depth Not available.
UV 0 out of 16
Pollen 7.50 out of 12
Air Quality Not available.
Flu Activity Sporadic
METAR KFSD 162356Z 36023G30KT 10SM OVC013 M01/M03 A2994 RMK AO2 PK WND 36031/2345 SLP151 4/001 60017 T10111028 10089 21011 53054 $

More Conditions Fewer Conditions

Pressure 29.98 in
Visibility 10.0 miles
Clouds Overcast 1300 ft
Windchill 20 °F
Dew Point 27 °F
Humidity 86%
Rainfall 0.04 in
Snow Depth Not available.
UV 0 out of 16
Pollen 7.50 out of 12
Air Quality Not available.
Flu Activity Sporadic
METAR KFSD 162356Z 36023G30KT 10SM OVC013 M01/M03 A2994 RMK AO2 PK WND 36031/2345 SLP151 4/001 60017 T10111028 10089 21011 53054 $

More Conditions Fewer Conditions

10-Day Forecast

Almanac

Astronomy

Apr. 16, 2014 Rise Set
Actual Time 6:44 AM CDT 8:14 PM CDT
Civil Twilight 6:14 AM CDT 8:44 PM CDT
Nautical Twilight 5:37 AM CDT 9:21 PM CDT
Astronomical Twilight 4:58 AM CDT 10:00 PM CDT
Moon 10:02 PM CDT (4/16) 7:30 AM CDT (4/16)
Length of Visible Light 14h 30m
Length of Day
13h 30m
Tomorrow will be 2m 53s longer.
Waning Gibbous, 97% of the Moon is Illuminated
Today
Waning Gibbous
Apr 22
Last Quarter
Apr 29
New
May 6
First Quarter
May 14
Full

Today's Extremes

State Highs State Lows

Community

  • symphony in blue....
    symphony in blue....
  • Dawn Surprise
    Dawn Surprise
  • Yucca delight
    Yucca delight
  • Sunset inside of the Ocean
    Sunset inside of the Ocean
  • Lunar eclipse 15 April 2014
    Lunar eclipse 15 April 2014

WunderPhotos

Upload Photos

1,701,768 photos uploaded!

WunderBlogs® & News

Nearby

Snow Depth

Station Depth Elevation
Blind Park 25 in 6890 ft

Coastal Water Temperatures

Place Temperature
No Stations Reporting

Earthquake Activity

City Distance Mag. Time & Date
No recent earthquake activity has been reported nearby.
Minimum magnitude displayed is 2.5.

Nearby Weather Stations

Station Location Temp. Windchill Dew Point Humidity Wind Precip. Elev Updated Type
Rural Canova, SD, Canova, SD 31.0 °F 20 °F 27 °F 86% North  at  14.6 mph 0.00 in / hr 1503 ft 7:51 PM CDT Rapid Fire

Show More Stations Show Fewer Stations

What do you think?

We're not finished. Please let us know what you like, what you don't like, and what you are still missing.